Time;durP1;ratioP1;P1;durP2;ratioP2;P2;SDS_P1;SDS_P2;PMS_P1;PMS_P2;Temp;Humidity;BMP_temperature;BMP_pressure;BME280_temperature;BME280_humidity;BME280_pressure;Samples;Min_cycle;Max_cycle;Signal;HPM_P1;HPM_P2
2022/05/14 00:00:36;;;;;;;4.40;4.03;;;;;;;19.33;71.25;99224.72;5014289;28;20216;-60
2022/05/14 00:03:03;;;;;;;6.23;3.37;;;;;;;19.30;71.21;99220.56;5014334;28;20214;-60
2022/05/14 00:05:30;;;;;;;4.27;3.97;;;;;;;19.29;71.48;99233.66;5014437;28;20194;-60
2022/05/14 00:07:57;;;;;;;4.40;4.00;;;;;;;19.25;71.79;99221.81;5014217;28;20260;-60
2022/05/14 00:10:28;;;;;;;4.60;4.30;;;;;;;19.20;72.11;99229.09;5014344;28;20198;-60
2022/05/14 00:13:06;;;;;;;4.07;3.87;;;;;;;19.09;72.45;99232.44;5014190;28;20213;-60
2022/05/14 00:15:35;;;;;;;4.60;4.30;;;;;;;19.02;72.55;99219.94;5014107;28;20213;-60
2022/05/14 00:18:02;;;;;;;4.97;4.67;;;;;;;19.01;72.29;99224.31;5013671;28;20202;-60
2022/05/14 00:20:29;;;;;;;4.50;4.30;;;;;;;18.98;72.97;99228.88;5014075;28;20205;-60
2022/05/14 00:22:56;;;;;;;4.83;4.33;;;;;;;18.92;72.89;99218.91;5013736;28;20202;-60
2022/05/14 00:25:25;;;;;;;5.30;4.97;;;;;;;18.91;73.40;99212.88;5014017;28;20213;-60
2022/05/14 00:27:53;;;;;;;4.50;4.30;;;;;;;18.91;73.45;99217.22;5013727;28;20206;-60
2022/05/14 00:30:24;;;;;;;5.23;4.73;;;;;;;18.87;73.60;99221.78;5013938;28;20205;-60
2022/05/14 00:32:52;;;;;;;4.77;4.47;;;;;;;18.85;73.77;99211.50;5013825;28;20256;-60
2022/05/14 00:35:19;;;;;;;5.13;4.93;;;;;;;18.83;73.89;99213.41;5012855;28;20721;-60
2022/05/14 00:37:46;;;;;;;4.90;4.57;;;;;;;18.81;73.80;99217.84;5013711;28;20202;-60
2022/05/14 00:40:18;;;;;;;5.20;4.97;;;;;;;18.77;73.92;99211.19;5011027;28;20214;-60
2022/05/14 00:42:46;;;;;;;4.77;4.27;;;;;;;18.74;73.91;99208.78;5013144;28;20228;-60
2022/05/14 00:45:16;;;;;;;4.50;4.30;;;;;;;18.70;74.31;99204.75;5013828;28;20209;-60
2022/05/14 00:47:46;;;;;;;5.80;5.30;;;;;;;18.62;74.25;99212.19;5013472;28;20258;-60
2022/05/14 00:50:25;;;;;;;8.23;4.60;;;;;;;18.55;74.46;99200.56;5013592;28;21666;-60
2022/05/14 00:52:59;;;;;;;4.83;4.63;;;;;;;18.51;74.86;99209.50;5013439;28;20212;-60
2022/05/14 00:55:27;;;;;;;6.97;5.03;;;;;;;18.50;75.07;99202.63;5013084;28;20222;-60
2022/05/14 00:57:56;;;;;;;5.33;4.87;;;;;;;18.48;75.03;99214.81;5013444;28;20201;-60
2022/05/14 01:00:24;;;;;;;7.23;5.03;;;;;;;18.48;75.11;99209.63;5010976;28;20556;-60
2022/05/14 01:02:52;;;;;;;4.80;4.60;;;;;;;18.47;75.20;99207.16;5013185;28;20202;-61
2022/05/14 01:05:21;;;;;;;5.13;4.83;;;;;;;18.41;74.84;99200.59;5012912;28;20198;-60
2022/05/14 01:07:50;;;;;;;5.07;4.67;;;;;;;18.41;75.15;99198.03;5013171;28;20209;-60
2022/05/14 01:10:20;;;;;;;4.80;4.60;;;;;;;18.29;75.19;99188.41;5013190;28;20198;-60
2022/05/14 01:12:51;;;;;;;4.93;4.63;;;;;;;18.41;75.67;99203.22;5013013;28;20272;-60
2022/05/14 01:15:24;;;;;;;6.20;5.13;;;;;;;18.40;75.64;99209.31;5012698;28;20218;-60
2022/05/14 01:17:52;;;;;;;4.90;4.70;;;;;;;18.40;75.98;99209.31;5012918;28;20206;-60
2022/05/14 01:20:19;;;;;;;4.70;4.43;;;;;;;18.39;76.23;99205.06;5012774;28;20233;-60
2022/05/14 01:22:59;;;;;;;5.07;4.87;;;;;;;18.37;76.47;99206.94;5012439;28;20240;-60
2022/05/14 01:28:20;;;;;;;4.77;4.57;;;;;;;18.35;76.50;99208.81;5011467;28;20276;-60
2022/05/14 01:30:51;;;;;;;5.67;5.27;;;;;;;18.34;76.60;99209.72;5011482;28;20671;-60
2022/05/14 01:33:19;;;;;;;5.40;5.07;;;;;;;18.32;76.43;99208.97;5010834;28;20220;-60
2022/05/14 01:35:46;;;;;;;5.33;5.10;;;;;;;18.28;76.69;99202.34;5011946;28;20686;-60
2022/05/14 01:38:13;;;;;;;4.73;4.53;;;;;;;18.25;76.38;99202.53;5011682;28;20215;-60
2022/05/14 01:40:40;;;;;;;5.43;5.17;;;;;;;18.14;76.83;99199.78;5013908;28;20205;-60
2022/05/14 01:43:07;;;;;;;5.20;4.90;;;;;;;18.16;77.25;99218.66;5012661;28;20194;-60
2022/05/14 01:45:35;;;;;;;5.23;4.80;;;;;;;18.09;77.28;99217.41;5011869;28;20202;-60
2022/05/14 01:48:03;;;;;;;5.00;4.70;;;;;;;18.03;77.43;99207.44;5009557;28;20204;-60
2022/05/14 01:50:30;;;;;;;5.30;5.00;;;;;;;17.96;77.75;99207.00;5010072;28;20199;-60
2022/05/14 01:52:57;;;;;;;6.10;5.80;;;;;;;17.92;78.20;99204.69;5010690;28;20758;-60
2022/05/14 01:55:23;;;;;;;4.73;4.53;;;;;;;17.83;78.36;99206.91;5009916;28;20221;-60
2022/05/14 01:57:51;;;;;;;4.80;4.60;;;;;;;17.67;78.57;99198.41;5010052;28;20210;-60
2022/05/14 02:00:19;;;;;;;4.90;4.60;;;;;;;17.68;79.12;99213.06;5010850;28;20202;-60
2022/05/14 02:02:47;;;;;;;7.33;4.97;;;;;;;17.61;79.86;99206.59;5011690;28;20190;-60
2022/05/14 02:05:14;;;;;;;5.00;4.60;;;;;;;17.57;80.21;99210.31;5012267;28;20684;-60
2022/05/14 02:07:41;;;;;;;5.30;5.00;;;;;;;17.49;80.83;99209.91;5011951;28;20211;-60
2022/05/14 02:10:09;;;;;;;4.83;4.53;;;;;;;17.49;81.10;99202.13;5012065;28;20208;-60
2022/05/14 02:12:37;;;;;;;5.67;5.37;;;;;;;17.46;81.38;99201.47;5011835;28;20206;-60
2022/05/14 02:15:05;;;;;;;4.57;4.30;;;;;;;17.30;81.78;99181.69;5012300;28;20755;-60
2022/05/14 02:17:31;;;;;;;5.73;5.20;;;;;;;17.36;82.20;99198.63;5011765;28;20202;-60
2022/05/14 02:20:00;;;;;;;4.60;4.33;;;;;;;17.42;82.48;99195.66;5012337;28;20229;-60
2022/05/14 02:22:27;;;;;;;5.07;4.87;;;;;;;17.43;82.82;99194.72;5011776;28;20194;-60
2022/05/14 02:24:54;;;;;;;5.40;5.10;;;;;;;17.46;82.71;99201.47;5011427;28;20204;-60
2022/05/14 02:27:20;;;;;;;4.97;4.67;;;;;;;17.44;82.80;99199.00;5011816;28;20263;-60
2022/05/14 02:29:54;;;;;;;4.97;4.57;;;;;;;17.46;82.75;99197.13;5027122;28;20216;-60
2022/05/14 02:32:24;;;;;;;4.70;4.50;;;;;;;17.45;83.34;99195.47;5031484;28;20628;-60
2022/05/14 02:34:51;;;;;;;4.83;4.63;;;;;;;17.35;83.09;99189.16;5012275;28;20221;-60
2022/05/14 02:37:22;;;;;;;4.70;4.50;;;;;;;17.46;83.50;99201.47;5010041;28;20590;-60
2022/05/14 02:39:49;;;;;;;5.47;5.17;;;;;;;17.37;83.60;99191.69;5010973;28;20665;-60
2022/05/14 02:42:17;;;;;;;5.50;5.00;;;;;;;17.45;83.62;99216.19;5011363;28;20204;-60
2022/05/14 02:44:44;;;;;;;4.60;4.30;;;;;;;17.35;83.64;99199.53;5011154;28;20205;-60
2022/05/14 02:47:11;;;;;;;5.50;5.00;;;;;;;17.36;83.66;99201.22;5011150;28;20198;-60
2022/05/14 02:49:38;;;;;;;5.20;5.00;;;;;;;17.33;84.04;99196.22;5010986;28;20208;-60
2022/05/14 02:52:06;;;;;;;5.07;4.87;;;;;;;17.30;84.32;99202.44;5011426;28;20205;-60
2022/05/14 02:54:35;;;;;;;5.50;5.20;;;;;;;17.29;84.20;99205.09;5010646;28;20694;-60
2022/05/14 02:57:01;;;;;;;5.90;5.50;;;;;;;17.28;84.59;99200.84;5010922;28;20225;-60
2022/05/14 02:59:28;;;;;;;5.63;5.33;;;;;;;17.18;84.66;99192.81;5011000;28;20205;-60
2022/05/14 03:01:56;;;;;;;5.73;5.43;;;;;;;16.98;84.99;99179.38;5010972;28;20208;-60
2022/05/14 03:04:25;;;;;;;5.30;4.90;;;;;;;17.04;85.04;99203.16;5011277;28;20666;-60
2022/05/14 03:06:52;;;;;;;6.63;5.97;;;;;;;16.99;85.42;99199.19;5010936;28;20579;-60
2022/05/14 03:09:20;;;;;;;8.67;5.13;;;;;;;16.95;85.48;99201.13;5011161;28;20216;-60
2022/05/14 03:11:48;;;;;;;6.43;5.97;;;;;;;16.94;85.43;99199.44;5011082;28;20213;-60
2022/05/14 03:14:15;;;;;;;6.17;5.80;;;;;;;16.96;85.88;99196.78;5010558;28;20202;-60
2022/05/14 03:16:43;;;;;;;5.17;4.87;;;;;;;16.99;85.28;99197.44;5011152;28;20672;-60
2022/05/14 03:19:11;;;;;;;5.03;4.80;;;;;;;17.02;85.33;99199.84;5010693;28;20202;-60
2022/05/14 03:21:38;;;;;;;5.97;5.67;;;;;;;16.99;85.66;99202.59;5010973;28;20293;-60
2022/05/14 03:24:07;;;;;;;5.47;5.07;;;;;;;16.97;86.12;99198.41;5010844;28;20205;-60
2022/05/14 03:26:34;;;;;;;6.77;6.37;;;;;;;16.98;85.79;99200.09;5011181;28;20597;-60
2022/05/14 03:29:02;;;;;;;7.53;5.87;;;;;;;16.99;86.25;99201.78;5010676;28;20206;-60
2022/05/14 03:31:29;;;;;;;6.07;5.63;;;;;;;16.98;86.61;99200.09;5010310;28;20689;-60
2022/05/14 03:33:56;;;;;;;10.13;5.47;;;;;;;16.98;86.81;99190.56;5010045;28;20214;-60
2022/05/14 03:36:23;;;;;;;8.30;5.43;;;;;;;16.87;87.45;99192.13;5008614;28;20637;-60
2022/05/14 03:38:50;;;;;;;6.87;5.77;;;;;;;16.78;88.31;99199.50;5007784;28;20598;-60
2022/05/14 03:41:17;;;;;;;5.83;5.43;;;;;;;16.88;88.85;99209.31;5009164;28;20194;-60
2022/05/14 03:43:45;;;;;;;8.40;5.53;;;;;;;16.98;88.86;99206.13;5010886;28;20256;-60
2022/05/14 03:46:13;;;;;;;5.27;5.07;;;;;;;17.11;88.23;99201.88;5010158;28;20200;-60
2022/05/14 03:48:40;;;;;;;5.80;5.50;;;;;;;17.24;88.04;99205.38;5010763;28;20202;-60
2022/05/14 03:51:08;;;;;;;5.77;5.47;;;;;;;17.30;87.95;99199.84;5010666;28;20198;-60
2022/05/14 03:53:37;;;;;;;5.30;4.90;;;;;;;17.52;87.69;99211.47;5010310;28;20202;-60
2022/05/14 03:56:04;;;;;;;5.47;5.17;;;;;;;17.63;87.21;99209.94;5010628;28;20312;-60
2022/05/14 03:58:31;;;;;;;6.50;6.03;;;;;;;17.78;86.77;99216.75;5009240;28;20202;-60
2022/05/14 04:00:58;;;;;;;7.13;6.73;;;;;;;17.94;86.30;99223.56;5010469;28;20657;-60
2022/05/14 04:03:27;;;;;;;6.77;6.37;;;;;;;18.09;85.62;99227.78;5010619;28;20198;-60
2022/05/14 04:05:54;;;;;;;5.67;5.37;;;;;;;18.28;84.68;99233.47;5010528;28;20202;-60
2022/05/14 04:08:21;;;;;;;5.03;4.63;;;;;;;18.45;82.60;99235.00;5010303;28;20202;-60
2022/05/14 04:10:48;;;;;;;5.37;5.07;;;;;;;18.48;80.70;99239.97;5011404;28;20209;-60
2022/05/14 04:13:15;;;;;;;4.93;4.73;;;;;;;18.57;80.19;99245.44;5014093;28;20213;-60
2022/05/14 04:15:41;;;;;;;15.07;5.73;;;;;;;18.75;80.30;99253.78;5014259;28;20214;-60
2022/05/14 04:18:09;;;;;;;5.00;4.57;;;;;;;18.95;78.68;99242.06;5014432;28;20298;-60
2022/05/14 04:20:37;;;;;;;5.07;4.70;;;;;;;19.08;78.05;99229.91;5014043;28;20205;-60
2022/05/14 04:23:07;;;;;;;4.53;4.13;;;;;;;19.37;76.24;99255.59;5014062;28;20213;-60
2022/05/14 04:25:34;;;;;;;4.73;4.43;;;;;;;19.41;74.85;99248.47;5013841;28;20248;-60
2022/05/14 04:28:01;;;;;;;4.53;4.23;;;;;;;19.56;74.76;99241.34;5013913;28;20202;-60
2022/05/14 04:30:28;;;;;;;4.17;3.97;;;;;;;19.70;74.11;99247.28;5013894;28;20202;-60
2022/05/14 04:32:54;;;;;;;5.07;4.67;;;;;;;19.97;73.92;99256.69;5014642;28;20670;-60
2022/05/14 04:35:21;;;;;;;4.17;3.93;;;;;;;20.22;72.29;99261.81;5013344;28;20210;-60
2022/05/14 04:37:50;;;;;;;4.30;4.10;;;;;;;20.46;71.05;99262.66;5013749;28;20205;-60
2022/05/14 04:40:16;;;;;;;4.73;4.00;;;;;;;20.76;69.29;99268.22;5013831;28;20206;-60
2022/05/14 04:42:44;;;;;;;5.47;5.17;;;;;;;20.84;67.15;99273.69;5013647;28;20712;-60
2022/05/14 04:45:12;;;;;;;5.60;5.20;;;;;;;21.02;66.66;99271.50;5013739;28;20567;-60
2022/05/14 04:47:41;;;;;;;5.67;5.37;;;;;;;21.17;65.94;99261.72;5013421;28;20211;-60
2022/05/14 04:50:09;;;;;;;6.77;6.37;;;;;;;21.47;64.47;99269.81;5013761;28;20195;-60
2022/05/14 04:52:36;;;;;;;10.77;5.87;;;;;;;21.65;63.32;99268.38;5013118;28;20212;-60
2022/05/14 04:55:06;;;;;;;6.37;5.77;;;;;;;21.79;63.57;99268.16;5013449;28;20691;-60
2022/05/14 04:57:33;;;;;;;6.77;6.27;;;;;;;21.88;62.23;99264.81;5013387;28;20204;-61
2022/05/14 05:00:00;;;;;;;10.77;7.37;;;;;;;21.73;61.15;99268.63;5013441;28;20204;-60
2022/05/14 05:05:12;;;;;;;10.33;8.17;;;;;;;22.15;62.87;99266.22;5013388;28;20602;-61
2022/05/14 05:07:38;;;;;;;10.67;7.30;;;;;;;22.38;61.20;99260.00;5012689;28;20211;-61
2022/05/14 05:10:08;;;;;;;6.57;6.03;;;;;;;22.81;61.17;99271.25;5013061;28;20200;-61
2022/05/14 05:12:35;;;;;;;6.30;5.90;;;;;;;23.13;58.03;99280.84;5013061;28;20681;-61
2022/05/14 05:15:03;;;;;;;6.17;5.77;;;;;;;23.43;57.69;99283.50;5012176;28;20212;-60
2022/05/14 05:17:29;;;;;;;5.30;5.00;;;;;;;23.73;55.01;99280.06;5012645;28;20202;-61
2022/05/14 05:19:56;;;;;;;5.40;5.10;;;;;;;23.90;54.16;99288.13;5012212;28;20205;-61
2022/05/14 05:22:23;;;;;;;6.13;5.67;;;;;;;24.08;55.17;99279.59;5012747;28;20194;-61
2022/05/14 05:24:51;;;;;;;5.87;5.50;;;;;;;24.23;54.34;99270.47;5012112;28;20210;-61
2022/05/14 05:27:19;;;;;;;5.50;5.20;;;;;;;24.53;53.58;99281.66;5012560;28;20210;-61
2022/05/14 05:29:46;;;;;;;5.20;4.90;;;;;;;24.78;52.50;99282.06;5011663;28;20202;-61
2022/05/14 05:32:12;;;;;;;4.90;4.70;;;;;;;24.99;50.59;99282.75;5011345;28;20202;-61
2022/05/14 05:34:39;;;;;;;5.50;5.20;;;;;;;25.21;50.22;99286.84;5012619;28;20206;-61
2022/05/14 05:37:06;;;;;;;5.03;4.73;;;;;;;25.34;50.15;99269.00;5012242;28;20217;-61
2022/05/14 05:39:33;;;;;;;5.70;5.20;;;;;;;25.58;51.43;99269.38;5012475;28;20203;-61
2022/05/14 05:42:01;;;;;;;6.17;5.77;;;;;;;25.74;50.63;99269.59;5012141;28;20277;-61
2022/05/14 05:44:29;;;;;;;3.73;3.40;;;;;;;25.97;49.58;99278.75;5012637;28;20582;-61
2022/05/14 05:46:56;;;;;;;5.00;4.50;;;;;;;26.11;50.85;99285.28;5011930;28;20194;-61
2022/05/14 05:49:23;;;;;;;4.10;3.47;;;;;;;26.29;50.83;99280.94;5012236;28;20205;-61
2022/05/14 05:51:50;;;;;;;3.47;3.30;;;;;;;26.50;48.73;99288.53;5012288;28;20194;-61
2022/05/14 05:57:01;;;;;;;3.33;3.13;;;;;;;26.91;47.53;99281.88;5011911;28;20606;-61
2022/05/14 05:59:32;;;;;;;3.40;3.10;;;;;;;27.12;48.23;99285.81;5011466;28;20212;-61
2022/05/14 06:01:59;;;;;;;3.23;2.93;;;;;;;27.34;47.85;99284.44;5011527;28;20633;-61
2022/05/14 06:04:26;;;;;;;3.63;3.43;;;;;;;27.53;46.29;99283.44;5010543;28;20202;-61
2022/05/14 06:06:53;;;;;;;3.63;3.37;;;;;;;27.49;45.90;99287.38;5011890;28;20197;-61
2022/05/14 06:09:22;;;;;;;3.77;3.57;;;;;;;27.63;46.65;99281.50;5011529;28;20216;-61
2022/05/14 06:11:50;;;;;;;3.27;3.17;;;;;;;27.49;45.92;99284.75;5011797;28;20197;-61
2022/05/14 06:14:17;;;;;;;3.67;3.40;;;;;;;27.32;47.09;99285.59;5011586;28;20197;-61
2022/05/14 06:16:46;;;;;;;3.50;3.20;;;;;;;27.29;47.36;99296.44;5012082;28;20225;-61
2022/05/14 06:19:12;;;;;;;3.60;3.30;;;;;;;27.10;47.31;99298.28;5012639;28;20208;-61
2022/05/14 06:21:40;;;;;;;6.47;4.53;;;;;;;27.00;48.50;99275.69;5011256;28;20295;-61
2022/05/14 06:24:08;;;;;;;6.60;3.77;;;;;;;27.17;46.13;99295.03;5021399;28;20198;-61
2022/05/14 06:26:35;;;;;;;2.80;2.70;;;;;;;27.23;46.91;99276.00;5010496;28;20208;-61
2022/05/14 06:29:05;;;;;;;3.63;3.43;;;;;;;27.57;47.53;99303.22;5011542;28;20201;-61
2022/05/14 06:31:32;;;;;;;3.53;3.43;;;;;;;27.65;47.31;99298.00;5011264;28;20221;-61
2022/05/14 06:34:01;;;;;;;3.33;3.13;;;;;;;27.79;47.85;99302.66;5010999;28;20204;-61
2022/05/14 06:36:28;;;;;;;3.03;2.83;;;;;;;27.93;44.94;99291.53;5011308;28;20618;-61
2022/05/14 06:38:55;;;;;;;4.70;4.30;;;;;;;28.21;46.25;99294.78;5011680;28;20205;-61
2022/05/14 06:41:22;;;;;;;3.53;3.33;;;;;;;28.51;46.49;99309.19;5011003;28;20251;-61
2022/05/14 06:43:49;;;;;;;5.87;2.97;;;;;;;28.72;43.87;99306.97;5010876;28;20198;-61
2022/05/14 06:46:16;;;;;;;3.50;3.30;;;;;;;28.85;43.99;99298.56;5011173;28;20208;-61
2022/05/14 06:48:43;;;;;;;3.10;2.90;;;;;;;29.12;44.23;99309.59;5010850;28;20208;-62
2022/05/14 06:51:17;;;;;;;2.97;2.83;;;;;;;29.37;43.84;99299.84;5011142;28;20198;-61
2022/05/14 06:53:44;;;;;;;3.43;3.27;;;;;;;29.45;41.29;99301.66;5010875;28;20220;-61
2022/05/14 06:56:14;;;;;;;3.90;3.60;;;;;;;29.59;43.90;99298.31;5010500;28;20248;-62
2022/05/14 06:58:43;;;;;;;4.53;2.93;;;;;;;29.73;43.49;99289.66;5011116;28;20198;-61
2022/05/14 07:01:10;;;;;;;3.47;3.27;;;;;;;29.87;40.88;99277.59;5011056;28;20645;-61
2022/05/14 07:06:41;;;;;;;3.80;3.50;;;;;;;30.26;43.97;99301.34;5010815;28;20684;-62
2022/05/14 07:09:12;;;;;;;5.00;3.27;;;;;;;30.40;39.99;99301.47;5009205;28;20201;-62
2022/05/14 07:11:41;;;;;;;3.90;3.67;;;;;;;30.55;41.26;99301.53;5009112;28;20567;-62
2022/05/14 07:14:10;;;;;;;3.80;3.60;;;;;;;30.70;40.11;99305.88;5009749;28;20662;-62
2022/05/14 07:16:37;;;;;;;3.38;3.17;;;;;;;30.31;40.95;99299.03;5009949;28;20213;-62
2022/05/14 07:19:06;;;;;;;3.77;3.57;;;;;;;30.49;41.43;99303.06;5010586;28;20194;-62
2022/05/14 07:21:36;;;;;;;3.67;3.37;;;;;;;30.41;41.14;99300.47;5009805;28;20272;-62
2022/05/14 07:24:06;;;;;;;7.07;4.93;;;;;;;30.15;41.04;99294.63;5010071;28;20260;-62
2022/05/14 07:26:34;;;;;;;9.20;4.63;;;;;;;29.75;41.60;99300.91;5010888;28;20601;-62
2022/05/14 07:29:01;;;;;;;4.00;3.70;;;;;;;29.70;42.49;99311.97;5010634;28;20285;-62
2022/05/14 07:31:28;;;;;;;4.00;3.80;;;;;;;29.84;43.97;99313.13;5010949;28;20671;-62
2022/05/14 07:33:55;;;;;;;3.83;3.63;;;;;;;29.45;42.15;99317.50;5010846;28;20199;-62
2022/05/14 07:36:25;;;;;;;4.07;3.80;;;;;;;29.47;43.51;99320.78;5010640;28;20232;-62
2022/05/14 07:38:55;;;;;;;3.33;3.13;;;;;;;29.35;42.70;99322.13;5010784;28;20198;-62
2022/05/14 07:41:23;;;;;;;3.93;3.43;;;;;;;29.19;43.18;99329.06;5010708;28;20204;-62
2022/05/14 07:43:53;;;;;;;4.07;3.70;;;;;;;29.12;41.43;99337.78;5010630;28;20221;-62
2022/05/14 07:46:26;;;;;;;10.93;4.10;;;;;;;29.13;41.12;99334.16;5012914;28;20194;-62
2022/05/14 07:48:55;;;;;;;14.77;4.60;;;;;;;28.92;43.07;99333.84;5014526;28;20577;-62
2022/05/14 07:51:23;;;;;;;4.00;3.53;;;;;;;28.89;45.00;99332.34;5014801;28;20198;-62
2022/05/14 07:53:49;;;;;;;6.77;4.43;;;;;;;28.80;42.84;99333.34;5014500;28;20213;-62
2022/05/14 07:56:18;;;;;;;4.00;3.60;;;;;;;28.62;44.24;99330.00;5014336;28;20723;-61
2022/05/14 07:58:46;;;;;;;7.13;3.60;;;;;;;28.62;43.11;99330.00;5014552;28;20206;-62
2022/05/14 08:01:13;;;;;;;3.50;3.30;;;;;;;28.60;44.35;99342.50;5014420;28;20682;-62
2022/05/14 08:03:40;;;;;;;3.77;3.57;;;;;;;28.48;43.90;99343.81;5014513;28;20296;-62
2022/05/14 08:06:09;;;;;;;4.83;4.17;;;;;;;28.41;44.62;99343.63;5016804;28;20577;-61
2022/05/14 08:08:36;;;;;;;7.43;3.70;;;;;;;28.28;44.09;99343.25;5014412;28;20213;-61
2022/05/14 08:11:04;;;;;;;4.77;4.47;;;;;;;27.96;45.78;99348.38;5014074;28;20594;-61
2022/05/14 08:13:34;;;;;;;5.57;3.47;;;;;;;27.90;45.89;99349.84;5014216;28;20622;-62
2022/05/14 08:16:01;;;;;;;4.10;3.90;;;;;;;27.63;46.24;99355.25;5013731;28;20213;-61
2022/05/14 08:18:28;;;;;;;18.47;5.17;;;;;;;27.67;46.75;99353.97;5013473;28;20211;-61
2022/05/14 08:20:55;;;;;;;7.00;3.37;;;;;;;27.57;46.98;99363.78;5014162;28;20664;-61
2022/05/14 08:26:08;;;;;;;3.63;3.33;;;;;;;27.29;47.93;99360.44;5013947;28;20274;-61
2022/05/14 08:28:36;;;;;;;3.83;3.57;;;;;;;27.24;47.35;99377.69;5014031;28;20655;-61
2022/05/14 08:31:03;;;;;;;3.90;3.57;;;;;;;27.02;48.22;99374.53;5013833;28;20210;-61
2022/05/14 08:33:30;;;;;;;4.20;3.90;;;;;;;26.56;49.65;99351.84;5020568;28;20193;-61
2022/05/14 08:35:57;;;;;;;3.30;3.13;;;;;;;26.58;49.86;99383.28;5033509;28;20244;-61
2022/05/14 08:38:24;;;;;;;3.13;3.00;;;;;;;26.53;52.88;99388.13;5033242;28;20201;-61
2022/05/14 08:40:55;;;;;;;4.90;3.83;;;;;;;26.14;52.88;99392.72;5033376;28;20201;-61
2022/05/14 08:43:28;;;;;;;14.97;5.27;;;;;;;26.11;51.33;99393.00;5012161;28;20202;-61
2022/05/14 08:45:57;;;;;;;5.00;3.03;;;;;;;26.06;49.81;99395.25;5013605;28;20209;-61
2022/05/14 08:48:27;;;;;;;3.83;3.50;;;;;;;26.03;51.27;99399.00;5013296;28;20206;-61
2022/05/14 08:51:01;;;;;;;2.77;2.67;;;;;;;26.04;52.12;99411.16;5013401;28;20208;-61
2022/05/14 08:53:30;;;;;;;3.10;2.77;;;;;;;25.78;51.77;99398.81;5012937;28;20702;-62
2022/05/14 08:56:10;;;;;;;2.70;2.60;;;;;;;25.79;51.87;99424.94;5013342;28;20601;-61
2022/05/14 08:58:55;;;;;;;3.30;3.20;;;;;;;25.70;52.65;99419.69;5013195;28;20202;-61
2022/05/14 09:01:26;;;;;;;2.83;2.73;;;;;;;25.75;52.90;99426.16;5011834;28;20213;-61
2022/05/14 09:03:53;;;;;;;3.20;2.67;;;;;;;25.71;53.63;99421.38;5013224;28;20210;-61
2022/05/14 09:06:21;;;;;;;4.15;3.28;;;;;;;25.84;53.90;99441.09;5011253;28;20489;-68
2022/05/14 09:08:48;;;;;;;3.42;3.13;;;;;;;25.90;52.75;99443.16;5011538;28;20810;-66
2022/05/14 09:11:22;;;;;;;3.50;3.30;;;;;;;25.93;52.21;99447.28;5017118;28;20559;-67
2022/05/14 09:13:53;;;;;;;3.30;3.10;;;;;;;25.84;52.98;99443.72;5010775;28;20629;-67
2022/05/14 09:16:28;;;;;;;2.93;2.83;;;;;;;25.82;52.87;99437.78;5013042;28;20264;-67
2022/05/14 09:18:55;;;;;;;3.63;3.43;;;;;;;25.92;53.89;99446.47;5011355;28;20259;-67
2022/05/14 09:21:25;;;;;;;4.73;2.80;;;;;;;25.92;53.31;99456.97;5012122;28;20685;-66
2022/05/14 09:23:55;;;;;;;3.60;3.40;;;;;;;25.90;54.76;99458.91;5011618;28;20577;-67
2022/05/14 09:26:28;;;;;;;2.90;2.80;;;;;;;25.93;53.68;99468.31;5028420;28;20237;-67
2022/05/14 09:29:01;;;;;;;3.07;2.83;;;;;;;25.87;52.84;99459.22;5028279;28;20194;-66
2022/05/14 09:31:33;;;;;;;3.40;3.10;;;;;;;25.81;52.74;99457.16;5020520;28;20571;-66
2022/05/14 09:34:06;;;;;;;3.33;3.13;;;;;;;25.89;53.46;99465.13;5017242;28;20225;-64
2022/05/14 09:36:36;;;;;;;2.93;2.83;;;;;;;25.88;53.48;99465.28;5022373;28;20225;-65
2022/05/14 09:39:07;;;;;;;5.43;3.50;;;;;;;25.75;53.24;99470.81;5019543;28;20212;-64
2022/05/14 09:41:43;;;;;;;16.23;3.27;;;;;;;25.79;53.54;99466.94;5019368;28;20761;-65
2022/05/14 09:44:16;;;;;;;3.30;3.10;;;;;;;25.84;54.76;99479.66;5013558;28;20210;-65
2022/05/14 09:46:44;;;;;;;15.43;4.63;;;;;;;25.65;55.71;99475.28;5016931;28;20210;-64
2022/05/14 09:49:20;;;;;;;4.33;3.93;;;;;;;25.57;56.38;99477.75;5015531;28;20550;-65
2022/05/14 09:51:52;;;;;;;3.27;3.07;;;;;;;25.43;57.38;99472.88;5017334;28;20201;-65
2022/05/14 09:54:23;;;;;;;3.37;3.23;;;;;;;25.36;58.99;99464.75;5015879;28;20208;-64
2022/05/14 09:57:25;;;;;;;3.97;3.77;;;;;;;25.23;60.55;99466.00;5021908;28;20240;-65
2022/05/14 10:00:05;;;;;;;3.07;2.87;;;;;;;25.16;60.65;99462.25;5011748;28;20212;-65
2022/05/14 10:02:46;;;;;;;3.10;3.00;;;;;;;25.14;59.71;99448.47;5026143;28;20295;-65
2022/05/14 10:05:20;;;;;;;3.23;3.03;;;;;;;25.12;61.32;99439.88;5011502;28;20198;-62
2022/05/14 10:07:54;;;;;;;3.47;3.37;;;;;;;25.12;62.20;99434.63;5011259;28;20203;-65
2022/05/14 10:10:33;;;;;;;2.63;2.53;;;;;;;25.06;63.43;99423.72;5011266;28;20614;-66
2022/05/14 10:13:05;;;;;;;2.93;2.80;;;;;;;25.03;63.26;99421.38;5010273;28;20685;-67
2022/05/14 10:15:41;;;;;;;2.77;2.57;;;;;;;24.94;64.59;99414.31;5011283;28;20202;-65
2022/05/14 10:18:29;;;;;;;2.90;2.80;;;;;;;24.81;64.54;99390.13;5012789;28;20217;-66
2022/05/14 10:21:02;;;;;;;2.80;2.70;;;;;;;24.89;64.67;99403.41;5017912;28;20212;-64
2022/05/14 10:27:05;;;;;;;4.73;2.93;;;;;;;24.30;65.86;99384.19;4960396;28;20894;-67
2022/05/14 10:29:44;;;;;;;6.30;2.87;;;;;;;23.98;69.18;99379.94;5002042;28;20224;-65
2022/05/14 10:32:14;;;;;;;4.53;2.50;;;;;;;23.80;74.29;99391.97;5011996;28;20213;-65
2022/05/14 10:34:48;;;;;;;2.70;2.50;;;;;;;23.85;75.08;99402.88;5016730;28;20646;-65
2022/05/14 10:37:28;;;;;;;2.53;2.40;;;;;;;23.79;74.99;99415.66;5019303;28;20220;-65
2022/05/14 10:40:04;;;;;;;2.63;2.53;;;;;;;23.86;75.44;99425.50;5007536;28;20217;-65
2022/05/14 10:42:40;;;;;;;2.50;2.30;;;;;;;23.75;74.12;99422.94;5010503;28;20205;-64
2022/05/14 10:45:14;;;;;;;3.30;3.00;;;;;;;23.53;75.80;99418.66;5016444;28;20201;-65
2022/05/14 10:47:48;;;;;;;3.13;2.93;;;;;;;23.48;77.17;99415.63;5022754;28;20197;-65
2022/05/14 10:50:19;;;;;;;2.73;2.53;;;;;;;23.34;78.98;99420.28;5023610;28;20269;-65
2022/05/14 10:52:48;;;;;;;2.50;2.40;;;;;;;23.37;77.41;99425.25;5017023;28;20208;-65
2022/05/14 10:55:22;;;;;;;2.40;2.23;;;;;;;23.31;77.46;99431.00;5014429;28;20234;-64
2022/05/14 10:57:55;;;;;;;2.20;2.10;;;;;;;23.24;78.74;99445.53;5018750;28;20239;-65
2022/05/14 11:00:38;;;;;;;2.50;2.30;;;;;;;23.35;80.92;99437.66;5016366;28;20204;-64
2022/05/14 11:03:12;;;;;;;2.37;2.17;;;;;;;23.51;79.54;99430.22;5019379;28;20205;-66
2022/05/14 11:06:05;;;;;;;2.70;2.50;;;;;;;23.62;76.30;99438.00;5017445;28;20204;-65
2022/05/14 11:08:34;;;;;;;3.50;2.53;;;;;;;23.42;79.41;99433.63;5013095;28;20621;-65
2022/05/14 11:11:04;;;;;;;3.70;3.50;;;;;;;23.16;78.78;99434.88;5010025;28;20201;-65
2022/05/14 11:13:32;;;;;;;3.37;3.27;;;;;;;22.98;79.87;99431.94;5016405;28;20300;-65
2022/05/14 11:16:01;;;;;;;3.30;3.10;;;;;;;22.52;81.17;99419.06;5012544;28;20302;-65
2022/05/14 11:18:28;;;;;;;3.63;3.33;;;;;;;22.55;82.20;99442.38;5023531;28;20299;-65
2022/05/14 11:21:00;;;;;;;3.50;3.30;;;;;;;22.56;84.03;99441.41;5025282;28;20350;-64
2022/05/14 11:23:27;;;;;;;3.53;3.23;;;;;;;22.49;83.64;99421.91;5017828;28;20221;-65
2022/05/14 11:26:07;;;;;;;3.63;3.43;;;;;;;22.36;85.83;99416.84;5016925;28;20202;-65
2022/05/14 11:28:34;;;;;;;3.40;3.20;;;;;;;22.27;85.40;99416.72;5020196;28;20757;-65
2022/05/14 11:31:20;;;;;;;3.33;3.13;;;;;;;22.17;86.09;99405.31;5015568;28;20212;-64
2022/05/14 11:33:49;;;;;;;3.90;3.50;;;;;;;22.12;85.27;99397.03;5025536;28;20236;-65
2022/05/14 11:36:25;;;;;;;4.00;3.80;;;;;;;22.25;86.08;99408.19;5015690;28;20203;-65
2022/05/14 11:39:21;;;;;;;3.77;3.57;;;;;;;22.56;87.24;99399.59;5017831;28;20220;-65
2022/05/14 11:41:49;;;;;;;3.63;3.43;;;;;;;23.04;88.08;99401.88;5016992;28;20215;-65
2022/05/14 11:44:29;;;;;;;7.27;4.13;;;;;;;23.41;84.97;99400.53;5019583;28;20204;-65
2022/05/14 11:46:57;;;;;;;5.60;3.87;;;;;;;23.79;80.32;99395.53;5015535;28;20197;-67
2022/05/14 11:49:30;;;;;;;3.73;3.53;;;;;;;24.15;82.20;99398.63;5018734;28;20213;-66
2022/05/14 11:52:08;;;;;;;9.20;3.70;;;;;;;24.18;80.41;99380.03;5014861;28;20215;-66
2022/05/14 11:54:41;;;;;;;4.07;3.87;;;;;;;24.24;80.67;99376.88;5019094;28;20200;-66
2022/05/14 11:57:13;;;;;;;3.47;3.37;;;;;;;24.23;78.64;99356.91;5014055;28;20201;-66
2022/05/14 11:59:52;;;;;;;3.93;3.73;;;;;;;24.59;77.74;99390.34;5018713;28;20212;-66
2022/05/14 12:02:27;;;;;;;4.23;4.03;;;;;;;24.70;77.82;99382.38;5017519;28;20585;-66